Time;durP1;ratioP1;P1;durP2;ratioP2;P2;SDS_P1;SDS_P2;PMS_P1;PMS_P2;Temp;Humidity;BMP_temperature;BMP_pressure;BME280_temperature;BME280_humidity;BME280_pressure;Samples;Min_cycle;Max_cycle;Signal;HPM_P1;HPM_P2
2023/06/12 00:00:04;;;;;;;;;;;26.70;52.90;;;;;;4003451;29;19932;-55
2023/06/12 00:02:48;;;;;;;;;;;26.60;52.60;;;;;;4003211;29;19975;-56
2023/06/12 00:05:29;;;;;;;;;;;26.70;51.80;;;;;;4003441;29;19996;-57
2023/06/12 00:08:11;;;;;;;;;;;26.60;51.80;;;;;;4003500;29;19935;-55
2023/06/12 00:10:53;;;;;;;;;;;26.60;52.60;;;;;;4003539;29;20273;-58
2023/06/12 00:13:34;;;;;;;;;;;26.60;52.10;;;;;;4002991;29;20007;-56
2023/06/12 00:16:15;;;;;;;;;;;26.60;51.50;;;;;;4003226;29;19939;-57
2023/06/12 00:18:56;;;;;;;;;;;26.60;51.50;;;;;;4003067;29;20300;-57
2023/06/12 00:21:36;;;;;;;;;;;26.50;51.90;;;;;;4001918;29;20023;-58
2023/06/12 00:24:17;;;;;;;;;;;26.50;52.20;;;;;;4002687;29;19936;-56
2023/06/12 00:27:00;;;;;;;;;;;26.50;53.20;;;;;;4003365;29;19931;-58
2023/06/12 00:29:40;;;;;;;;;;;26.50;52.90;;;;;;4003339;29;20132;-57
2023/06/12 00:32:21;;;;;;;;;;;26.50;53.20;;;;;;4003111;29;19931;-57
2023/06/12 00:35:02;;;;;;;;;;;26.50;53.00;;;;;;3997918;29;20292;-57
2023/06/12 00:37:43;;;;;;;;;;;26.40;53.20;;;;;;3991620;29;19931;-57
2023/06/12 00:40:23;;;;;;;;;;;26.40;53.70;;;;;;3988340;29;20385;-57
2023/06/12 00:43:06;;;;;;;;;;;26.40;53.20;;;;;;3997749;29;19932;-57
2023/06/12 00:45:47;;;;;;;;;;;26.40;53.20;;;;;;3998398;29;20060;-56
2023/06/12 00:48:28;;;;;;;;;;;26.40;53.10;;;;;;3991491;29;19931;-58
2023/06/12 00:51:10;;;;;;;;;;;26.40;53.40;;;;;;4002953;29;19965;-57
2023/06/12 00:53:53;;;;;;;;;;;26.40;53.60;;;;;;4003116;29;20304;-58
2023/06/12 00:56:33;;;;;;;;;;;26.40;53.70;;;;;;4012384;29;20341;-59
2023/06/12 00:59:16;;;;;;;;;;;26.40;54.50;;;;;;4002938;29;19931;-58
2023/06/12 01:01:57;;;;;;;;;;;26.30;53.60;;;;;;4001405;29;19931;-58
2023/06/12 01:04:42;;;;;;;;;;;26.30;52.60;;;;;;4002818;29;19935;-58
2023/06/12 01:07:29;;;;;;;;;;;26.30;53.00;;;;;;4001656;29;19935;-58
2023/06/12 01:10:14;;;;;;;;;;;26.30;53.00;;;;;;4002875;29;19975;-58
2023/06/12 01:12:55;;;;;;;;;;;26.30;53.40;;;;;;4001189;29;20396;-59
2023/06/12 01:15:38;;;;;;;;;;;26.30;53.40;;;;;;4001463;29;19984;-58
2023/06/12 01:18:20;;;;;;;;;;;26.20;53.00;;;;;;4001679;29;20016;-57
2023/06/12 01:21:04;;;;;;;;;;;26.20;53.10;;;;;;4012136;29;19935;-57
2023/06/12 01:23:59;;;;;;;;;;;26.20;53.50;;;;;;4002179;29;19975;-58
2023/06/12 01:26:53;;;;;;;;;;;26.20;53.70;;;;;;3993632;29;20449;-57
2023/06/12 01:29:46;;;;;;;;;;;26.20;53.80;;;;;;3995209;29;19939;-58
2023/06/12 01:32:29;;;;;;;;;;;26.20;53.90;;;;;;4001224;29;19935;-58
2023/06/12 01:35:16;;;;;;;;;;;26.10;53.90;;;;;;4002848;29;19932;-57
2023/06/12 01:38:04;;;;;;;;;;;26.10;53.90;;;;;;4001273;29;19934;-56
2023/06/12 01:40:46;;;;;;;;;;;26.10;54.70;;;;;;4002406;29;20559;-56
2023/06/12 01:43:27;;;;;;;;;;;26.10;54.00;;;;;;4001410;29;19936;-56
2023/06/12 01:46:08;;;;;;;;;;;26.10;54.80;;;;;;4002400;29;19931;-57
2023/06/12 01:48:51;;;;;;;;;;;26.10;54.00;;;;;;4001507;29;19931;-58
2023/06/12 01:51:32;;;;;;;;;;;26.10;54.00;;;;;;4001094;29;19935;-57
2023/06/12 01:54:13;;;;;;;;;;;26.10;54.80;;;;;;4001103;29;20053;-56
2023/06/12 01:56:55;;;;;;;;;;;26.10;53.80;;;;;;4001210;29;19931;-55
2023/06/12 01:59:36;;;;;;;;;;;26.00;53.90;;;;;;3987619;29;20045;-57
2023/06/12 02:02:17;;;;;;;;;;;26.00;54.00;;;;;;4000523;29;19931;-57
2023/06/12 02:04:59;;;;;;;;;;;26.00;53.90;;;;;;4011949;29;19935;-58
2023/06/12 02:07:40;;;;;;;;;;;26.00;54.00;;;;;;4001016;29;19932;-58
2023/06/12 02:10:21;;;;;;;;;;;26.00;54.00;;;;;;4001031;29;19931;-58
2023/06/12 02:13:02;;;;;;;;;;;26.00;54.10;;;;;;3987006;29;19984;-59
2023/06/12 02:15:43;;;;;;;;;;;25.90;54.10;;;;;;3996485;29;19932;-57
2023/06/12 02:18:24;;;;;;;;;;;25.90;54.30;;;;;;3996676;29;19932;-58
2023/06/12 02:21:06;;;;;;;;;;;25.90;53.50;;;;;;3993225;29;20011;-58
2023/06/12 02:23:46;;;;;;;;;;;25.90;52.70;;;;;;3986993;29;20061;-57
2023/06/12 02:26:31;;;;;;;;;;;25.90;53.60;;;;;;3987249;29;20284;-57
2023/06/12 02:29:12;;;;;;;;;;;25.90;53.40;;;;;;3997634;29;19931;-57
2023/06/12 02:31:57;;;;;;;;;;;25.80;53.60;;;;;;4000569;29;20292;-56
2023/06/12 02:34:38;;;;;;;;;;;25.80;53.40;;;;;;4000682;29;20427;-59
2023/06/12 02:37:20;;;;;;;;;;;25.80;53.10;;;;;;4001032;29;20062;-59
2023/06/12 02:40:06;;;;;;;;;;;25.80;53.10;;;;;;4000634;29;19932;-60
2023/06/12 02:42:48;;;;;;;;;;;25.70;53.50;;;;;;4000511;29;19931;-60
2023/06/12 02:45:29;;;;;;;;;;;25.70;53.80;;;;;;4000433;29;19948;-59
2023/06/12 02:48:10;;;;;;;;;;;25.70;54.00;;;;;;4003718;29;19930;-59
2023/06/12 02:50:52;;;;;;;;;;;25.70;54.10;;;;;;4000693;29;19945;-59
2023/06/12 02:53:35;;;;;;;;;;;25.70;54.30;;;;;;4000717;29;19932;-60
2023/06/12 02:56:16;;;;;;;;;;;25.60;54.30;;;;;;4000818;29;19936;-59
2023/06/12 02:58:56;;;;;;;;;;;25.60;54.40;;;;;;4000851;29;19932;-60
2023/06/12 03:01:43;;;;;;;;;;;25.60;54.50;;;;;;3999846;29;20838;-60
2023/06/12 03:04:32;;;;;;;;;;;25.60;54.60;;;;;;3985584;29;19936;-60
2023/06/12 03:07:16;;;;;;;;;;;25.60;54.60;;;;;;3986846;29;20762;-59
2023/06/12 03:09:58;;;;;;;;;;;25.60;54.50;;;;;;3991287;29;19951;-59
2023/06/12 03:12:39;;;;;;;;;;;25.60;54.50;;;;;;4003402;29;19935;-59
2023/06/12 03:15:21;;;;;;;;;;;25.60;54.50;;;;;;4003034;29;19980;-59
2023/06/12 03:18:02;;;;;;;;;;;25.60;54.30;;;;;;4004549;29;19935;-60
2023/06/12 03:20:43;;;;;;;;;;;25.60;54.50;;;;;;4003389;29;19930;-59
2023/06/12 03:23:23;;;;;;;;;;;25.50;54.60;;;;;;4004499;29;19935;-59
2023/06/12 03:26:06;;;;;;;;;;;25.60;54.70;;;;;;4003130;29;19951;-59
2023/06/12 03:28:47;;;;;;;;;;;25.60;54.80;;;;;;4003283;29;19932;-60
2023/06/12 03:31:27;;;;;;;;;;;25.50;54.60;;;;;;4002822;29;19935;-60
2023/06/12 03:34:11;;;;;;;;;;;25.50;54.60;;;;;;4003103;29;19990;-59
2023/06/12 03:36:52;;;;;;;;;;;25.50;54.60;;;;;;4003416;29;19935;-60
2023/06/12 03:39:39;;;;;;;;;;;25.50;54.70;;;;;;4003017;29;20023;-59
2023/06/12 03:42:23;;;;;;;;;;;25.50;54.40;;;;;;4002675;29;20001;-60
2023/06/12 03:45:11;;;;;;;;;;;25.50;54.60;;;;;;4003096;29;19935;-60
2023/06/12 03:47:52;;;;;;;;;;;25.50;54.60;;;;;;4002887;29;20093;-60
2023/06/12 03:50:33;;;;;;;;;;;25.50;54.60;;;;;;3988076;29;20041;-60
2023/06/12 03:53:13;;;;;;;;;;;25.50;54.70;;;;;;3998523;29;19935;-60
2023/06/12 03:55:54;;;;;;;;;;;25.50;54.80;;;;;;3976986;29;19932;-60
2023/06/12 03:58:36;;;;;;;;;;;25.40;54.80;;;;;;3995588;29;19931;-60
2023/06/12 04:01:17;;;;;;;;;;;25.50;55.00;;;;;;4002665;29;19931;-60
2023/06/12 04:04:00;;;;;;;;;;;25.40;55.00;;;;;;4002190;29;20069;-59
2023/06/12 04:06:41;;;;;;;;;;;25.40;55.00;;;;;;4003328;29;20012;-60
2023/06/12 04:09:22;;;;;;;;;;;25.40;55.00;;;;;;4002338;29;20385;-60
2023/06/12 04:12:04;;;;;;;;;;;25.40;55.10;;;;;;4002404;29;19951;-58
2023/06/12 04:14:46;;;;;;;;;;;25.40;55.20;;;;;;4003361;29;20638;-58
2023/06/12 04:17:26;;;;;;;;;;;25.40;55.20;;;;;;4003376;29;19935;-59
2023/06/12 04:20:08;;;;;;;;;;;25.40;55.20;;;;;;4002725;29;19935;-58
2023/06/12 04:22:50;;;;;;;;;;;25.40;55.10;;;;;;4003329;29;20065;-59
2023/06/12 04:25:31;;;;;;;;;;;25.40;55.00;;;;;;4003499;29;19936;-59
2023/06/12 04:28:16;;;;;;;;;;;25.40;54.90;;;;;;4002411;29;20388;-60
2023/06/12 04:30:59;;;;;;;;;;;25.40;55.00;;;;;;4002302;29;19935;-60
2023/06/12 04:33:41;;;;;;;;;;;25.40;54.80;;;;;;4002316;29;20026;-58
2023/06/12 04:36:22;;;;;;;;;;;25.40;54.90;;;;;;4002449;29;20003;-59
2023/06/12 04:39:03;;;;;;;;;;;25.30;55.70;;;;;;4002042;29;19931;-59
2023/06/12 04:41:47;;;;;;;;;;;25.30;55.20;;;;;;4002139;29;19957;-59
2023/06/12 04:44:30;;;;;;;;;;;25.30;55.10;;;;;;4012655;29;20391;-57
2023/06/12 04:47:14;;;;;;;;;;;25.30;55.70;;;;;;4002568;29;19936;-58
2023/06/12 04:49:57;;;;;;;;;;;25.30;55.10;;;;;;4002182;29;19993;-58
2023/06/12 04:52:39;;;;;;;;;;;25.30;55.40;;;;;;4001504;29;20069;-58
2023/06/12 04:55:22;;;;;;;;;;;25.40;55.50;;;;;;4001529;29;19935;-58
2023/06/12 04:58:03;;;;;;;;;;;25.40;55.60;;;;;;3997537;29;19946;-58
2023/06/12 05:00:47;;;;;;;;;;;25.40;55.60;;;;;;3993698;29;19951;-58
2023/06/12 05:03:33;;;;;;;;;;;25.40;55.60;;;;;;3992652;29;19962;-58
2023/06/12 05:06:14;;;;;;;;;;;25.40;55.60;;;;;;4001524;29;19979;-58
2023/06/12 05:08:55;;;;;;;;;;;25.40;55.50;;;;;;3987823;29;19935;-57
2023/06/12 05:11:36;;;;;;;;;;;25.40;55.50;;;;;;3987846;29;20455;-57
2023/06/12 05:14:18;;;;;;;;;;;25.40;55.50;;;;;;3986977;29;19932;-57
2023/06/12 05:17:00;;;;;;;;;;;25.40;55.30;;;;;;4000214;29;19935;-56
2023/06/12 05:19:43;;;;;;;;;;;25.50;56.10;;;;;;4001385;29;19936;-57
2023/06/12 05:22:24;;;;;;;;;;;25.50;55.30;;;;;;4000156;29;19934;-58
2023/06/12 05:25:06;;;;;;;;;;;25.50;55.10;;;;;;3994817;29;19935;-55
2023/06/12 05:27:46;;;;;;;;;;;25.60;54.70;;;;;;3998435;29;20028;-58
2023/06/12 05:30:27;;;;;;;;;;;25.70;54.50;;;;;;4001993;29;19931;-59
2023/06/12 05:33:08;;;;;;;;;;;25.80;54.30;;;;;;3996447;29;19976;-57
2023/06/12 05:35:50;;;;;;;;;;;25.90;53.90;;;;;;4001796;29;19939;-57
2023/06/12 05:38:31;;;;;;;;;;;25.90;53.70;;;;;;4001487;29;19945;-57
2023/06/12 05:41:14;;;;;;;;;;;26.00;53.60;;;;;;3999825;29;19931;-56
2023/06/12 05:43:54;;;;;;;;;;;26.10;53.60;;;;;;3999606;29;19931;-57
2023/06/12 05:46:36;;;;;;;;;;;26.10;53.40;;;;;;4008969;29;20012;-57
2023/06/12 05:49:16;;;;;;;;;;;26.20;53.30;;;;;;3991758;29;20058;-58
2023/06/12 05:52:03;;;;;;;;;;;26.20;53.00;;;;;;3997727;29;19931;-57
2023/06/12 05:54:44;;;;;;;;;;;26.20;53.10;;;;;;4002558;29;19944;-57
2023/06/12 05:57:25;;;;;;;;;;;26.20;53.10;;;;;;4000831;29;19950;-57
2023/06/12 06:00:10;;;;;;;;;;;26.10;52.90;;;;;;4000680;29;19931;-57
2023/06/12 06:03:04;;;;;;;;;;;26.00;52.80;;;;;;4000455;29;19976;-57
2023/06/12 06:05:47;;;;;;;;;;;26.00;53.10;;;;;;3999803;29;20668;-57
2023/06/12 06:08:29;;;;;;;;;;;25.90;53.40;;;;;;4000939;29;19939;-55
2023/06/12 06:11:10;;;;;;;;;;;25.90;53.30;;;;;;4002061;29;19936;-57
2023/06/12 06:13:51;;;;;;;;;;;26.00;54.20;;;;;;4001183;29;20064;-57
2023/06/12 06:16:32;;;;;;;;;;;25.90;53.60;;;;;;4000855;29;20398;-57
2023/06/12 06:19:28;;;;;;;;;;;26.00;53.60;;;;;;4000015;29;20309;-57
2023/06/12 06:22:09;;;;;;;;;;;26.00;53.50;;;;;;4000850;29;19936;-57
2023/06/12 06:24:51;;;;;;;;;;;26.10;53.60;;;;;;4001931;29;19931;-57
2023/06/12 06:27:32;;;;;;;;;;;26.10;53.60;;;;;;4001216;29;19935;-56
2023/06/12 06:30:13;;;;;;;;;;;26.20;54.30;;;;;;3990096;29;19980;-56
2023/06/12 06:32:53;;;;;;;;;;;26.30;53.30;;;;;;3991939;29;19947;-55
2023/06/12 06:35:36;;;;;;;;;;;26.20;53.20;;;;;;3992714;29;19935;-57
2023/06/12 06:38:21;;;;;;;;;;;26.30;53.90;;;;;;3986579;29;20061;-57
2023/06/12 06:41:03;;;;;;;;;;;26.30;53.30;;;;;;4001105;29;19931;-57
2023/06/12 06:43:47;;;;;;;;;;;26.40;53.30;;;;;;3997248;29;19935;-57
2023/06/12 06:46:28;;;;;;;;;;;26.40;53.10;;;;;;3989126;29;19953;-57
2023/06/12 06:49:11;;;;;;;;;;;26.50;53.30;;;;;;3996907;29;19958;-57
2023/06/12 06:51:54;;;;;;;;;;;26.50;53.30;;;;;;3995675;29;20020;-57
2023/06/12 06:54:36;;;;;;;;;;;26.60;53.20;;;;;;3989225;29;20034;-56
2023/06/12 06:57:21;;;;;;;;;;;26.60;53.90;;;;;;4000421;29;19936;-56
2023/06/12 07:00:05;;;;;;;;;;;26.70;53.00;;;;;;4003213;29;19936;-58
2023/06/12 07:02:47;;;;;;;;;;;26.70;52.90;;;;;;4003724;29;19961;-58
2023/06/12 07:05:30;;;;;;;;;;;26.80;53.00;;;;;;4003424;29;20037;-58
2023/06/12 07:08:11;;;;;;;;;;;26.80;53.00;;;;;;4004302;29;20070;-58
2023/06/12 07:10:54;;;;;;;;;;;26.90;53.70;;;;;;4000851;29;19935;-58
2023/06/12 07:13:37;;;;;;;;;;;26.90;53.10;;;;;;3995036;29;19935;-58
2023/06/12 07:16:18;;;;;;;;;;;26.90;53.10;;;;;;4003336;29;19963;-58
2023/06/12 07:18:58;;;;;;;;;;;26.90;53.10;;;;;;4000698;29;19931;-58
2023/06/12 07:21:39;;;;;;;;;;;26.90;53.10;;;;;;4002725;29;19935;-58
2023/06/12 07:24:20;;;;;;;;;;;27.00;53.10;;;;;;4004180;29;19932;-57
2023/06/12 07:27:01;;;;;;;;;;;27.00;53.00;;;;;;4003384;29;20069;-58
2023/06/12 07:29:43;;;;;;;;;;;27.00;52.90;;;;;;4002308;29;19935;-57
2023/06/12 07:32:24;;;;;;;;;;;27.00;53.00;;;;;;3988248;29;19932;-57
2023/06/12 07:35:06;;;;;;;;;;;27.00;52.90;;;;;;3993839;29;20411;-58
2023/06/12 07:37:49;;;;;;;;;;;27.00;53.00;;;;;;4002861;29;19935;-57
2023/06/12 07:40:31;;;;;;;;;;;27.00;53.60;;;;;;4003191;29;20396;-57
2023/06/12 07:43:14;;;;;;;;;;;27.00;52.80;;;;;;4002628;29;19935;-57
2023/06/12 07:45:56;;;;;;;;;;;27.00;52.90;;;;;;4002488;29;20304;-57
2023/06/12 07:48:37;;;;;;;;;;;27.00;53.20;;;;;;4002156;29;19946;-57
2023/06/12 07:51:18;;;;;;;;;;;27.00;53.20;;;;;;3997687;29;20304;-58
2023/06/12 07:53:59;;;;;;;;;;;26.90;53.10;;;;;;3994631;29;19936;-58
2023/06/12 07:56:40;;;;;;;;;;;26.90;53.60;;;;;;3997688;29;19975;-57
2023/06/12 07:59:23;;;;;;;;;;;26.90;53.10;;;;;;3997056;29;20076;-58
2023/06/12 08:02:11;;;;;;;;;;;26.90;53.30;;;;;;4002634;29;19931;-58
2023/06/12 08:04:52;;;;;;;;;;;26.90;53.60;;;;;;3992583;29;19930;-58
2023/06/12 08:07:33;;;;;;;;;;;26.80;53.10;;;;;;3991712;29;20064;-58
2023/06/12 08:10:15;;;;;;;;;;;26.80;53.20;;;;;;4002186;29;19936;-58
2023/06/12 08:12:56;;;;;;;;;;;26.80;53.40;;;;;;4002427;29;20304;-58
2023/06/12 08:15:37;;;;;;;;;;;26.80;53.40;;;;;;4001817;29;19944;-57
2023/06/12 08:18:21;;;;;;;;;;;26.80;53.50;;;;;;4002568;29;19932;-58
2023/06/12 08:21:02;;;;;;;;;;;26.80;53.40;;;;;;4002296;29;19939;-58
2023/06/12 08:23:43;;;;;;;;;;;26.70;53.50;;;;;;4002287;29;19932;-57
2023/06/12 08:26:24;;;;;;;;;;;26.70;53.50;;;;;;3999780;29;19931;-58
2023/06/12 08:29:06;;;;;;;;;;;26.70;53.70;;;;;;4012946;29;20284;-58
2023/06/12 08:31:49;;;;;;;;;;;26.80;54.10;;;;;;3991762;29;19932;-57
2023/06/12 08:34:32;;;;;;;;;;;26.80;53.90;;;;;;4003082;29;19939;-58
2023/06/12 08:37:12;;;;;;;;;;;26.80;54.00;;;;;;3997673;29;20296;-57
2023/06/12 08:39:53;;;;;;;;;;;26.80;54.10;;;;;;3987893;29;19935;-56
2023/06/12 08:42:34;;;;;;;;;;;26.80;54.20;;;;;;4000346;29;19935;-58
2023/06/12 08:45:16;;;;;;;;;;;26.80;54.00;;;;;;4000429;29;19936;-58
2023/06/12 08:48:02;;;;;;;;;;;26.90;54.10;;;;;;4001318;29;20675;-58
2023/06/12 08:50:46;;;;;;;;;;;26.80;54.20;;;;;;4002824;29;20003;-58
2023/06/12 08:53:27;;;;;;;;;;;26.90;54.00;;;;;;4002491;29;19935;-58
2023/06/12 08:56:08;;;;;;;;;;;26.90;54.10;;;;;;4002592;29;19935;-58
2023/06/12 08:58:48;;;;;;;;;;;26.90;54.30;;;;;;4002821;29;19957;-58
2023/06/12 09:01:30;;;;;;;;;;;26.90;54.50;;;;;;4003169;29;19985;-58
2023/06/12 09:04:18;;;;;;;;;;;27.00;54.60;;;;;;4002913;29;20025;-58
2023/06/12 09:07:03;;;;;;;;;;;27.00;54.40;;;;;;3987355;29;19931;-58
2023/06/12 09:09:45;;;;;;;;;;;27.00;54.10;;;;;;4001411;29;19934;-58
2023/06/12 09:12:25;;;;;;;;;;;27.00;54.30;;;;;;4002288;29;19931;-58
2023/06/12 09:15:07;;;;;;;;;;;27.00;54.30;;;;;;4002062;29;20015;-57
2023/06/12 09:17:47;;;;;;;;;;;27.00;54.30;;;;;;4002594;29;19936;-58
2023/06/12 09:20:29;;;;;;;;;;;27.10;54.20;;;;;;4002788;29;20064;-58
2023/06/12 09:23:15;;;;;;;;;;;27.10;54.90;;;;;;4002487;29;19951;-57
2023/06/12 09:25:56;;;;;;;;;;;27.10;54.30;;;;;;4002357;29;20111;-57
2023/06/12 09:28:54;;;;;;;;;;;27.10;54.30;;;;;;4002135;29;19958;-58
2023/06/12 09:31:35;;;;;;;;;;;27.20;54.00;;;;;;4002571;29;20396;-58
2023/06/12 09:34:17;;;;;;;;;;;27.20;54.10;;;;;;4002698;29;20052;-58
2023/06/12 09:36:57;;;;;;;;;;;27.20;54.20;;;;;;3987636;29;19931;-58
2023/06/12 09:39:39;;;;;;;;;;;27.20;54.00;;;;;;3987600;29;20073;-57
2023/06/12 09:42:21;;;;;;;;;;;27.20;54.00;;;;;;3987421;29;20397;-57
2023/06/12 09:45:10;;;;;;;;;;;27.20;54.60;;;;;;3994519;29;20549;-58
2023/06/12 09:47:52;;;;;;;;;;;27.30;54.00;;;;;;3987563;29;20327;-57
2023/06/12 09:50:32;;;;;;;;;;;27.30;54.20;;;;;;3987705;29;19932;-57
2023/06/12 09:53:16;;;;;;;;;;;27.30;54.10;;;;;;3992889;29;20321;-57
2023/06/12 09:55:59;;;;;;;;;;;27.30;54.00;;;;;;4001076;29;19980;-57
2023/06/12 09:58:40;;;;;;;;;;;27.30;54.00;;;;;;4002158;29;19932;-57
2023/06/12 10:01:21;;;;;;;;;;;27.40;54.10;;;;;;4002390;29;19936;-58
2023/06/12 10:04:02;;;;;;;;;;;27.40;53.90;;;;;;4001747;29;19931;-57
2023/06/12 10:06:43;;;;;;;;;;;27.40;53.80;;;;;;4001986;29;19935;-57
2023/06/12 10:09:24;;;;;;;;;;;27.40;53.80;;;;;;4002094;29;20406;-58
2023/06/12 10:12:07;;;;;;;;;;;27.50;53.70;;;;;;4002018;29;19941;-57
2023/06/12 10:14:48;;;;;;;;;;;27.50;53.60;;;;;;4002284;29;19940;-57
2023/06/12 10:17:30;;;;;;;;;;;27.50;53.80;;;;;;4001991;29;19941;-57
2023/06/12 10:20:13;;;;;;;;;;;27.60;53.80;;;;;;4004956;29;20065;-57
2023/06/12 10:22:55;;;;;;;;;;;27.60;53.30;;;;;;4004905;29;20285;-57
2023/06/12 10:25:35;;;;;;;;;;;27.60;53.50;;;;;;4005304;29;19951;-57
2023/06/12 10:28:18;;;;;;;;;;;27.70;53.60;;;;;;4005116;29;19935;-57
2023/06/12 10:31:16;;;;;;;;;;;27.70;53.10;;;;;;4004905;29;19932;-58
2023/06/12 10:33:58;;;;;;;;;;;27.70;53.30;;;;;;4004970;29;20045;-58
2023/06/12 10:36:40;;;;;;;;;;;27.70;53.30;;;;;;3999087;29;19940;-58
2023/06/12 10:39:24;;;;;;;;;;;27.70;53.20;;;;;;3990024;29;20012;-57
2023/06/12 10:42:07;;;;;;;;;;;27.70;53.70;;;;;;4000316;29;19931;-58
2023/06/12 10:44:49;;;;;;;;;;;27.80;52.90;;;;;;4003994;29;20073;-58
2023/06/12 10:47:31;;;;;;;;;;;27.80;53.00;;;;;;4002933;29;20316;-57
2023/06/12 10:50:12;;;;;;;;;;;27.80;53.10;;;;;;4004668;29;19952;-57
2023/06/12 10:52:53;;;;;;;;;;;27.80;52.50;;;;;;4003794;29;19941;-57
2023/06/12 10:55:35;;;;;;;;;;;27.90;52.20;;;;;;3989731;29;19932;-57
2023/06/12 10:58:17;;;;;;;;;;;27.90;52.80;;;;;;4010113;29;19931;-57
2023/06/12 11:01:02;;;;;;;;;;;27.90;52.50;;;;;;4012135;29;19939;-57
2023/06/12 11:03:43;;;;;;;;;;;28.00;51.90;;;;;;4004572;29;19931;-56
2023/06/12 11:06:28;;;;;;;;;;;27.90;52.80;;;;;;4003533;29;19935;-56
2023/06/12 11:09:10;;;;;;;;;;;28.00;51.60;;;;;;4004587;29;19935;-56
2023/06/12 11:11:51;;;;;;;;;;;28.00;51.70;;;;;;4004383;29;19932;-56
2023/06/12 11:14:32;;;;;;;;;;;28.00;51.30;;;;;;4004414;29;20395;-57
2023/06/12 11:17:14;;;;;;;;;;;28.10;52.20;;;;;;3997966;29;19931;-57
2023/06/12 11:19:58;;;;;;;;;;;28.00;51.90;;;;;;4002688;29;20292;-57
2023/06/12 11:22:39;;;;;;;;;;;28.10;51.90;;;;;;4002914;29;19935;-56
2023/06/12 11:25:19;;;;;;;;;;;28.10;51.40;;;;;;4004213;29;19931;-57
2023/06/12 11:28:00;;;;;;;;;;;28.10;51.40;;;;;;4004476;29;19932;-57
2023/06/12 11:30:46;;;;;;;;;;;28.10;51.20;;;;;;4003687;29;19935;-57
2023/06/12 11:33:48;;;;;;;;;;;28.10;51.20;;;;;;4002399;29;19949;-58
2023/06/12 11:36:28;;;;;;;;;;;28.20;51.30;;;;;;4003738;29;19935;-57
2023/06/12 11:39:18;;;;;;;;;;;28.20;51.40;;;;;;3992502;29;19935;-57
2023/06/12 11:42:02;;;;;;;;;;;28.20;50.90;;;;;;4003830;29;19931;-56
2023/06/12 11:44:43;;;;;;;;;;;28.30;50.60;;;;;;4004114;29;19977;-57
2023/06/12 11:47:24;;;;;;;;;;;28.30;51.50;;;;;;3992652;29;19932;-58
2023/06/12 11:50:10;;;;;;;;;;;28.30;50.80;;;;;;3992129;29;19980;-58
2023/06/12 11:52:51;;;;;;;;;;;28.30;50.30;;;;;;4003846;29;19965;-57
2023/06/12 11:55:32;;;;;;;;;;;28.30;49.90;;;;;;4003678;29;19983;-58
2023/06/12 11:58:16;;;;;;;;;;;28.40;50.80;;;;;;4002700;29;20478;-58
2023/06/12 12:01:09;;;;;;;;;;;28.40;51.20;;;;;;3995803;29;19935;-57
2023/06/12 12:03:51;;;;;;;;;;;28.40;49.40;;;;;;3988626;29;19935;-57
2023/06/12 12:06:47;;;;;;;;;;;28.40;49.90;;;;;;3988697;29;20281;-58
2023/06/12 12:09:29;;;;;;;;;;;28.40;49.50;;;;;;3988266;29;19932;-56
2023/06/12 12:12:10;;;;;;;;;;;28.50;49.60;;;;;;3988487;29;20004;-58
2023/06/12 12:14:51;;;;;;;;;;;28.50;49.80;;;;;;3988779;29;19936;-58
2023/06/12 12:17:31;;;;;;;;;;;28.50;49.00;;;;;;3999143;29;19931;-58
2023/06/12 12:20:16;;;;;;;;;;;28.50;49.30;;;;;;4000144;29;19951;-57
2023/06/12 12:23:00;;;;;;;;;;;28.50;48.70;;;;;;4003591;29;19936;-58
2023/06/12 12:25:41;;;;;;;;;;;28.60;49.20;;;;;;4002413;29;19935;-58
2023/06/12 12:28:22;;;;;;;;;;;28.60;48.70;;;;;;3995933;29;20273;-58
2023/06/12 12:31:03;;;;;;;;;;;28.60;49.00;;;;;;3996987;29;19930;-58
2023/06/12 12:33:43;;;;;;;;;;;28.60;48.90;;;;;;4003235;29;19935;-58
2023/06/12 12:36:24;;;;;;;;;;;28.60;49.00;;;;;;3988007;29;19931;-58
2023/06/12 12:39:06;;;;;;;;;;;28.60;49.00;;;;;;4001333;29;19932;-58
2023/06/12 12:41:47;;;;;;;;;;;28.70;48.70;;;;;;4002279;29;19931;-58
2023/06/12 12:44:28;;;;;;;;;;;28.70;48.80;;;;;;4001560;29;19931;-58
2023/06/12 12:47:08;;;;;;;;;;;28.70;48.30;;;;;;4002968;29;19931;-58
2023/06/12 12:49:49;;;;;;;;;;;28.70;48.40;;;;;;4000667;29;20402;-58
2023/06/12 12:52:34;;;;;;;;;;;28.70;48.50;;;;;;4003039;29;19935;-58
2023/06/12 12:55:19;;;;;;;;;;;28.70;48.20;;;;;;4003018;29;20064;-58
2023/06/12 12:58:00;;;;;;;;;;;28.80;47.90;;;;;;4002112;29;19931;-57
2023/06/12 13:00:59;;;;;;;;;;;28.70;48.00;;;;;;3987673;29;19932;-55
2023/06/12 13:03:40;;;;;;;;;;;28.80;48.10;;;;;;3994190;29;20292;-57
2023/06/12 13:06:21;;;;;;;;;;;28.80;47.90;;;;;;3992828;29;19935;-57
2023/06/12 13:09:02;;;;;;;;;;;28.80;47.70;;;;;;4002508;29;19932;-56
2023/06/12 13:11:44;;;;;;;;;;;28.90;47.40;;;;;;4001201;29;19932;-57
2023/06/12 13:14:26;;;;;;;;;;;28.90;47.00;;;;;;4002442;29;19935;-57
2023/06/12 13:17:08;;;;;;;;;;;28.90;47.30;;;;;;4001003;29;19936;-57
2023/06/12 13:19:50;;;;;;;;;;;28.90;47.20;;;;;;3987330;29;20061;-57
2023/06/12 13:22:32;;;;;;;;;;;28.90;46.90;;;;;;3987513;29;20057;-56
2023/06/12 13:25:13;;;;;;;;;;;28.90;47.10;;;;;;3992725;29;19935;-56
2023/06/12 13:27:55;;;;;;;;;;;28.90;47.70;;;;;;4002207;29;20652;-57
2023/06/12 13:30:36;;;;;;;;;;;29.00;46.70;;;;;;4002168;29;19935;-56
2023/06/12 13:33:17;;;;;;;;;;;28.90;46.70;;;;;;3996533;29;20012;-56
2023/06/12 13:35:58;;;;;;;;;;;28.90;46.80;;;;;;4002072;29;19930;-57
2023/06/12 13:38:40;;;;;;;;;;;29.00;46.20;;;;;;3999314;29;19935;-57
2023/06/12 13:41:21;;;;;;;;;;;29.00;46.40;;;;;;4002302;29;19932;-57
2023/06/12 13:44:04;;;;;;;;;;;29.00;46.40;;;;;;3998802;29;19936;-57
2023/06/12 13:46:44;;;;;;;;;;;29.00;45.90;;;;;;3987235;29;20491;-57
2023/06/12 13:49:25;;;;;;;;;;;29.00;46.10;;;;;;3987316;29;19952;-57
2023/06/12 13:52:07;;;;;;;;;;;29.00;45.90;;;;;;3987267;29;19931;-59
2023/06/12 13:54:47;;;;;;;;;;;29.00;45.90;;;;;;4002679;29;20428;-58
2023/06/12 13:57:28;;;;;;;;;;;29.00;45.90;;;;;;4001406;29;20022;-58
2023/06/12 14:00:11;;;;;;;;;;;29.00;45.70;;;;;;4001282;29;19936;-58
2023/06/12 14:02:53;;;;;;;;;;;29.00;46.80;;;;;;3995190;29;19934;-58
2023/06/12 14:05:34;;;;;;;;;;;29.00;45.70;;;;;;4001995;29;19944;-58
2023/06/12 14:08:15;;;;;;;;;;;29.00;45.70;;;;;;3986708;29;19936;-56
2023/06/12 14:10:56;;;;;;;;;;;29.00;45.70;;;;;;3987080;29;19931;-57
2023/06/12 14:13:38;;;;;;;;;;;29.00;45.70;;;;;;3986783;29;19932;-57
2023/06/12 14:16:20;;;;;;;;;;;29.00;45.50;;;;;;3991739;29;19995;-57
2023/06/12 14:19:02;;;;;;;;;;;29.00;45.50;;;;;;4001789;29;20052;-58
2023/06/12 14:21:43;;;;;;;;;;;29.10;45.30;;;;;;4000596;29;19935;-58
2023/06/12 14:24:23;;;;;;;;;;;29.10;46.00;;;;;;4001648;29;20442;-58
2023/06/12 14:27:17;;;;;;;;;;;29.10;45.20;;;;;;4001629;29;19947;-56
2023/06/12 14:29:58;;;;;;;;;;;29.10;44.70;;;;;;4001163;29;19931;-57
2023/06/12 14:32:40;;;;;;;;;;;29.20;44.90;;;;;;4003441;29;19935;-57
2023/06/12 14:35:21;;;;;;;;;;;29.20;44.70;;;;;;4001441;29;20052;-58
2023/06/12 14:38:02;;;;;;;;;;;29.30;44.80;;;;;;3992072;29;19935;-58
2023/06/12 14:40:42;;;;;;;;;;;29.30;44.70;;;;;;4001708;29;20064;-57
2023/06/12 14:43:23;;;;;;;;;;;29.30;43.90;;;;;;4001820;29;19932;-58
2023/06/12 14:46:05;;;;;;;;;;;29.30;44.70;;;;;;4001621;29;20293;-58
2023/06/12 14:48:47;;;;;;;;;;;29.30;44.90;;;;;;4001652;29;19984;-59
2023/06/12 14:51:27;;;;;;;;;;;29.30;45.00;;;;;;4001539;29;20024;-58
2023/06/12 14:54:08;;;;;;;;;;;29.40;44.80;;;;;;4001502;29;19931;-58
2023/06/12 14:56:49;;;;;;;;;;;29.40;45.00;;;;;;4001486;29;19932;-56
2023/06/12 14:59:29;;;;;;;;;;;29.40;44.90;;;;;;4000831;29;19931;-57
2023/06/12 15:02:09;;;;;;;;;;;29.40;45.10;;;;;;4001281;29;19935;-57
2023/06/12 15:04:52;;;;;;;;;;;29.40;45.40;;;;;;4000755;29;19931;-58
2023/06/12 15:07:32;;;;;;;;;;;29.40;45.10;;;;;;4002846;29;19935;-59
2023/06/12 15:10:13;;;;;;;;;;;29.40;45.20;;;;;;4004516;29;19931;-58
2023/06/12 15:12:55;;;;;;;;;;;29.40;45.20;;;;;;4003528;29;19948;-58
2023/06/12 15:15:48;;;;;;;;;;;29.40;44.90;;;;;;4004142;29;20431;-57
2023/06/12 15:18:29;;;;;;;;;;;29.40;45.00;;;;;;4004226;29;19935;-57
2023/06/12 15:21:24;;;;;;;;;;;29.50;45.10;;;;;;4003750;29;19931;-57
2023/06/12 15:24:06;;;;;;;;;;;29.50;45.60;;;;;;4004245;29;19931;-57
2023/06/12 15:26:47;;;;;;;;;;;29.40;45.30;;;;;;4002932;29;20303;-58
2023/06/12 15:29:27;;;;;;;;;;;29.40;45.40;;;;;;4003938;29;19947;-58
2023/06/12 15:32:08;;;;;;;;;;;29.40;45.10;;;;;;4003894;29;20049;-58
2023/06/12 15:34:49;;;;;;;;;;;29.50;45.30;;;;;;4004223;29;20398;-58
2023/06/12 15:37:31;;;;;;;;;;;29.50;45.10;;;;;;4003797;29;20392;-58
2023/06/12 15:40:12;;;;;;;;;;;29.50;45.80;;;;;;4002857;29;19940;-55
2023/06/12 15:42:53;;;;;;;;;;;29.50;44.90;;;;;;4003669;29;19931;-56